Time;durP1;ratioP1;P1;durP2;ratioP2;P2;SDS_P1;SDS_P2;PMS_P1;PMS_P2;Temp;Humidity;BMP_temperature;BMP_pressure;BME280_temperature;BME280_humidity;BME280_pressure;Samples;Min_cycle;Max_cycle;Signal;HPM_P1;HPM_P2
2023/08/06 00:01:46;;;;;;;12.40;9.10;;;;;;;15.11;100.00;100293.66;5009697;28;20049;-52
2023/08/06 00:04:15;;;;;;;13.85;8.80;;;;;;;15.08;100.00;100292.13;5012718;28;20053;-53
2023/08/06 00:06:43;;;;;;;11.60;9.10;;;;;;;15.09;100.00;100296.44;5011160;28;20049;-50
2023/08/06 00:09:13;;;;;;;14.73;9.30;;;;;;;15.10;100.00;100292.00;5008385;28;20101;-52
2023/08/06 00:11:43;;;;;;;13.05;9.05;;;;;;;15.09;100.00;100298.25;5009397;28;20594;-52
2023/08/06 00:14:12;;;;;;;11.65;9.15;;;;;;;15.09;100.00;100288.50;5013074;28;20089;-51
2023/08/06 00:16:40;;;;;;;18.15;9.80;;;;;;;15.10;100.00;100286.69;5011509;28;20417;-50
2023/08/06 00:19:08;;;;;;;13.20;9.30;;;;;;;15.06;100.00;100282.66;5009409;28;20045;-53
2023/08/06 00:21:36;;;;;;;12.57;9.10;;;;;;;15.05;100.00;100284.47;5009038;28;20541;-51
2023/08/06 00:24:07;;;;;;;12.32;7.95;;;;;;;15.09;100.00;100283.19;5007850;28;20389;-52
2023/08/06 00:26:36;;;;;;;12.27;8.95;;;;;;;15.10;100.00;100273.47;5012623;28;20561;-51
2023/08/06 00:29:05;;;;;;;11.10;8.05;;;;;;;15.06;100.00;100280.84;5011394;28;20084;-51
2023/08/06 00:31:33;;;;;;;11.50;8.90;;;;;;;15.07;100.00;100277.22;5008793;28;20042;-52
2023/08/06 00:34:01;;;;;;;13.10;7.93;;;;;;;15.03;100.00;100278.47;5009023;28;20441;-53
2023/08/06 00:36:29;;;;;;;11.70;8.30;;;;;;;15.00;100.00;100274.31;5011404;28;20064;-52
2023/08/06 00:38:58;;;;;;;12.80;8.15;;;;;;;15.02;100.00;100285.59;5012015;28;20429;-52
2023/08/06 00:41:26;;;;;;;11.77;8.00;;;;;;;14.92;100.00;100284.78;5012132;28;20124;-53
2023/08/06 00:43:56;;;;;;;11.80;9.10;;;;;;;14.94;100.00;100274.84;5012298;28;20042;-51
2023/08/06 00:46:24;;;;;;;12.77;8.73;;;;;;;14.97;100.00;100277.25;5012328;28;20175;-51
2023/08/06 00:48:53;;;;;;;12.82;8.70;;;;;;;15.00;100.00;100278.78;5012213;28;20045;-52
2023/08/06 00:51:22;;;;;;;13.35;8.40;;;;;;;14.88;100.00;100278.91;5012039;28;20053;-53
2023/08/06 00:53:51;;;;;;;11.85;8.13;;;;;;;14.82;100.00;100276.00;5010993;28;20060;-53
2023/08/06 00:56:20;;;;;;;10.88;7.75;;;;;;;14.77;100.00;100292.31;5009228;28;20041;-54
2023/08/06 00:58:48;;;;;;;9.43;7.00;;;;;;;14.76;100.00;100282.69;5008816;28;20065;-53
2023/08/06 01:01:18;;;;;;;10.10;7.40;;;;;;;14.79;100.00;100284.22;5008872;28;20125;-52
2023/08/06 01:03:47;;;;;;;11.52;8.20;;;;;;;14.78;100.00;100287.84;5010809;28;20520;-54
2023/08/06 01:06:20;;;;;;;10.13;7.50;;;;;;;14.76;100.00;100292.47;5011724;28;20045;-54
2023/08/06 01:08:57;;;;;;;11.25;7.60;;;;;;;14.78;100.00;100291.34;5012185;28;20049;-54
2023/08/06 01:11:33;;;;;;;10.50;7.10;;;;;;;14.76;100.00;100280.03;5012217;28;20049;-55
2023/08/06 01:14:07;;;;;;;11.00;6.95;;;;;;;14.79;100.00;100276.28;5012022;28;20042;-55
2023/08/06 01:16:41;;;;;;;9.82;6.57;;;;;;;14.81;100.00;100277.81;5011876;28;20053;-61
2023/08/06 01:19:17;;;;;;;11.57;7.22;;;;;;;14.84;100.00;100272.22;5012431;28;20057;-61
2023/08/06 01:21:47;;;;;;;9.43;7.28;;;;;;;14.87;100.00;100276.41;5011869;28;20057;-61
2023/08/06 01:24:16;;;;;;;10.98;7.13;;;;;;;14.87;100.00;100271.13;5011531;28;20530;-62
2023/08/06 01:26:49;;;;;;;10.52;8.00;;;;;;;14.87;100.00;100268.47;5011692;28;20797;-54
2023/08/06 01:29:24;;;;;;;11.63;8.23;;;;;;;14.84;100.00;100260.81;5008911;28;20073;-54
2023/08/06 01:31:55;;;;;;;11.55;8.48;;;;;;;14.92;100.00;100265.41;5008113;28;20492;-53
2023/08/06 01:34:25;;;;;;;12.25;8.82;;;;;;;14.90;100.00;100267.34;5010199;28;20489;-55
2023/08/06 01:36:55;;;;;;;14.02;9.70;;;;;;;14.82;100.00;100263.63;5011541;28;20481;-54
2023/08/06 01:39:23;;;;;;;12.77;9.23;;;;;;;14.84;100.00;100255.53;5011537;28;20081;-54
2023/08/06 01:41:52;;;;;;;13.98;10.40;;;;;;;14.83;100.00;100260.00;5010569;28;20137;-62
2023/08/06 01:44:20;;;;;;;14.15;10.07;;;;;;;14.82;100.00;100262.75;5008604;28;20096;-55
2023/08/06 01:46:49;;;;;;;15.18;11.30;;;;;;;14.83;100.00;100259.16;5009406;28;20390;-55
2023/08/06 01:49:17;;;;;;;15.57;11.18;;;;;;;14.80;100.00;100262.09;5011747;28;20136;-54
2023/08/06 01:51:45;;;;;;;16.20;11.55;;;;;;;14.84;100.00;100256.34;5008932;28;20543;-53
2023/08/06 01:54:15;;;;;;;15.18;11.32;;;;;;;14.82;100.00;100257.47;5007142;28;20050;-53
2023/08/06 01:56:43;;;;;;;13.93;10.90;;;;;;;14.83;100.00;100256.50;5008203;28;20124;-51
2023/08/06 01:59:11;;;;;;;16.52;12.32;;;;;;;14.85;100.00;100252.72;5010017;28;20432;-53
2023/08/06 02:01:43;;;;;;;15.02;11.15;;;;;;;14.85;100.00;100257.22;5011684;28;20037;-56
2023/08/06 02:04:11;;;;;;;14.52;11.80;;;;;;;14.83;100.00;100260.00;5011519;28;20073;-53
2023/08/06 02:06:39;;;;;;;14.35;11.00;;;;;;;14.82;100.00;100258.31;5011473;28;20103;-61
2023/08/06 02:09:08;;;;;;;15.90;12.23;;;;;;;14.76;100.00;100250.09;5011473;28;20457;-53
2023/08/06 02:11:37;;;;;;;15.00;11.93;;;;;;;14.77;100.00;100255.25;5009306;28;20058;-62
2023/08/06 02:14:08;;;;;;;16.17;11.77;;;;;;;14.79;100.00;100255.97;5008666;28;20169;-62
2023/08/06 02:16:37;;;;;;;15.48;11.73;;;;;;;14.79;100.00;100257.75;5014037;28;20069;-62
2023/08/06 02:19:05;;;;;;;15.63;12.20;;;;;;;14.86;100.00;100259.72;5014585;28;20054;-54
2023/08/06 02:21:33;;;;;;;14.75;11.65;;;;;;;14.92;100.00;100258.28;5015048;28;20093;-54
2023/08/06 02:24:02;;;;;;;15.07;12.50;;;;;;;14.82;100.00;100249.53;5013512;28;20513;-56
2023/08/06 02:26:31;;;;;;;15.73;12.20;;;;;;;14.90;100.00;100251.47;5014709;28;20038;-55
2023/08/06 02:29:01;;;;;;;14.95;11.70;;;;;;;14.77;100.00;100249.13;5012073;28;20042;-54
2023/08/06 02:31:29;;;;;;;15.57;12.50;;;;;;;14.81;100.00;100242.59;5011331;28;20076;-54
2023/08/06 02:33:58;;;;;;;14.60;11.90;;;;;;;14.83;100.00;100230.88;5014746;28;20073;-53
2023/08/06 02:36:29;;;;;;;15.07;12.50;;;;;;;14.87;100.00;100236.69;5013162;28;20052;-53
2023/08/06 02:38:57;;;;;;;14.88;12.18;;;;;;;14.79;100.00;100242.72;5009206;28;20137;-55
2023/08/06 02:41:25;;;;;;;15.88;12.73;;;;;;;14.76;100.00;100236.88;5011047;28;20065;-55
2023/08/06 02:43:54;;;;;;;13.88;11.57;;;;;;;14.83;100.00;100237.97;5009916;28;20164;-54
2023/08/06 02:46:23;;;;;;;14.45;11.57;;;;;;;14.86;100.00;100237.69;5014312;28;20525;-53
2023/08/06 02:48:52;;;;;;;15.25;11.65;;;;;;;14.77;100.00;100233.25;5012863;28;20057;-54
2023/08/06 02:51:20;;;;;;;13.27;10.77;;;;;;;14.73;100.00;100224.75;5011308;28;20377;-54
2023/08/06 02:53:49;;;;;;;14.60;10.68;;;;;;;14.77;100.00;100227.97;5013251;28;20033;-54
2023/08/06 02:56:17;;;;;;;13.52;10.43;;;;;;;14.81;100.00;100221.41;5011484;28;20418;-54
2023/08/06 02:58:46;;;;;;;12.20;10.15;;;;;;;14.76;100.00;100221.00;5010804;28;20089;-54
2023/08/06 03:01:14;;;;;;;14.05;10.27;;;;;;;14.77;100.00;100222.69;5011207;28;20053;-54
2023/08/06 03:03:44;;;;;;;13.75;9.85;;;;;;;14.78;100.00;100227.81;5011813;28;20116;-54
2023/08/06 03:06:12;;;;;;;11.88;9.98;;;;;;;14.80;100.00;100225.84;5014095;28;20084;-54
2023/08/06 03:08:41;;;;;;;12.60;9.57;;;;;;;14.69;100.00;100218.06;5014319;28;20048;-54
2023/08/06 03:11:09;;;;;;;14.15;10.00;;;;;;;14.83;100.00;100225.59;5011037;28;20049;-54
2023/08/06 03:13:37;;;;;;;13.43;10.45;;;;;;;14.83;100.00;100222.94;5010242;28;20080;-54
2023/08/06 03:16:06;;;;;;;13.20;10.05;;;;;;;14.80;100.00;100223.19;5010714;28;20147;-55
2023/08/06 03:18:34;;;;;;;13.63;10.27;;;;;;;14.81;100.00;100214.28;5009949;28;20058;-54
2023/08/06 03:21:04;;;;;;;13.65;10.30;;;;;;;14.82;100.00;100212.47;5010470;28;20054;-54
2023/08/06 03:23:32;;;;;;;13.25;11.07;;;;;;;14.80;100.00;100217.09;5013029;28;20058;-54
2023/08/06 03:26:02;;;;;;;14.63;10.75;;;;;;;14.83;100.00;100216.78;5011843;28;20050;-54
2023/08/06 03:28:31;;;;;;;13.65;10.20;;;;;;;14.84;100.00;100216.66;5009104;28;20085;-54
2023/08/06 03:31:02;;;;;;;13.52;10.93;;;;;;;14.84;100.00;100213.19;5009845;28;20057;-54
2023/08/06 03:33:31;;;;;;;14.23;10.40;;;;;;;14.82;100.00;100213.31;5012440;28;20386;-55
2023/08/06 03:35:59;;;;;;;13.70;10.85;;;;;;;14.82;100.00;100209.81;5013588;28;20033;-61
2023/08/06 03:38:28;;;;;;;17.95;11.52;;;;;;;14.84;100.00;100216.66;5008353;28;20128;-62
2023/08/06 03:40:57;;;;;;;13.02;10.88;;;;;;;14.86;100.00;100214.69;5009534;28;20049;-62
2023/08/06 03:43:25;;;;;;;14.93;11.32;;;;;;;14.87;100.00;100215.53;5009762;28;20041;-54
2023/08/06 03:45:56;;;;;;;15.40;11.63;;;;;;;14.90;100.00;100209.13;5012113;28;20554;-62
2023/08/06 03:48:24;;;;;;;15.70;11.15;;;;;;;14.86;100.00;100208.56;5013056;28;20092;-53
2023/08/06 03:50:52;;;;;;;14.35;11.75;;;;;;;14.85;100.00;100202.44;5012626;28;20056;-55
2023/08/06 03:53:21;;;;;;;14.80;11.73;;;;;;;14.86;100.00;100212.06;5008799;28;20223;-54
2023/08/06 03:55:50;;;;;;;14.63;11.13;;;;;;;14.87;100.00;100207.59;5009249;28;20125;-54
2023/08/06 03:58:19;;;;;;;16.77;11.73;;;;;;;14.94;100.00;100213.16;5010078;28;20789;-55
2023/08/06 04:00:47;;;;;;;14.38;11.40;;;;;;;14.88;100.00;100214.56;5009711;28;20037;-54
2023/08/06 04:03:15;;;;;;;18.30;11.48;;;;;;;14.86;100.00;100217.34;5012261;28;20046;-54
2023/08/06 04:05:44;;;;;;;15.50;12.10;;;;;;;14.89;100.00;100208.28;5009229;28;20050;-54
2023/08/06 04:08:12;;;;;;;15.60;11.40;;;;;;;14.90;100.00;100207.28;5009859;28;20045;-62
2023/08/06 04:10:40;;;;;;;16.98;11.68;;;;;;;14.90;100.00;100217.06;5008479;28;20054;-61
2023/08/06 04:13:10;;;;;;;13.90;11.00;;;;;;;14.89;100.00;100210.94;5007892;28;20079;-54
2023/08/06 04:15:38;;;;;;;16.20;11.52;;;;;;;14.85;100.00;100213.03;5008933;28;20061;-54
2023/08/06 04:18:07;;;;;;;15.48;11.25;;;;;;;14.81;100.00;100214.28;5009163;28;20398;-54
2023/08/06 04:20:35;;;;;;;14.15;11.23;;;;;;;14.84;100.00;100211.34;5008816;28;20050;-54
2023/08/06 04:23:07;;;;;;;17.20;12.50;;;;;;;14.78;100.00;100222.53;5009055;28;20054;-54
2023/08/06 04:25:35;;;;;;;17.88;11.43;;;;;;;14.88;100.00;100223.31;5007677;28;20058;-54
2023/08/06 04:28:03;;;;;;;14.90;11.30;;;;;;;14.84;100.00;100219.28;5012017;28;20045;-54
2023/08/06 04:30:33;;;;;;;14.07;11.30;;;;;;;14.86;100.00;100213.84;5012388;28;20054;-54
2023/08/06 04:33:01;;;;;;;18.02;11.85;;;;;;;14.83;100.00;100217.66;5012323;28;20050;-54
2023/08/06 04:35:30;;;;;;;14.88;11.43;;;;;;;14.87;100.00;100212.88;5012243;28;20124;-62
2023/08/06 04:37:58;;;;;;;19.20;11.23;;;;;;;14.95;100.00;100220.13;5012006;28;20143;-62
2023/08/06 04:40:26;;;;;;;14.88;11.07;;;;;;;14.97;100.00;100223.44;5010924;28;20140;-62
2023/08/06 04:42:54;;;;;;;15.13;11.25;;;;;;;14.98;100.00;100223.31;5012120;28;20052;-54
2023/08/06 04:45:24;;;;;;;14.23;11.60;;;;;;;14.95;100.00;100215.66;5010939;28;20050;-53
2023/08/06 04:47:54;;;;;;;17.05;12.65;;;;;;;15.00;100.00;100221.34;5009088;28;20073;-54
2023/08/06 04:50:24;;;;;;;14.37;11.83;;;;;;;15.00;100.00;100223.19;5010313;28;20608;-53
2023/08/06 04:52:52;;;;;;;16.92;12.48;;;;;;;14.97;100.00;100234.88;5012147;28;20386;-55
2023/08/06 04:55:21;;;;;;;14.85;11.27;;;;;;;14.99;100.00;100232.91;5012195;28;20060;-62
2023/08/06 04:57:49;;;;;;;14.75;11.23;;;;;;;15.01;100.00;100228.31;5011095;28;20042;-62
2023/08/06 05:00:17;;;;;;;17.35;11.50;;;;;;;15.03;100.00;100229.00;5008033;28;20070;-62
2023/08/06 05:02:46;;;;;;;14.70;11.00;;;;;;;15.13;100.00;100234.25;5009424;28;20042;-63
2023/08/06 05:05:15;;;;;;;14.52;11.02;;;;;;;15.13;100.00;100239.56;5009129;28;20042;-62
2023/08/06 05:07:44;;;;;;;13.63;10.52;;;;;;;15.19;100.00;100235.53;5008498;28;20049;-62
2023/08/06 05:10:12;;;;;;;13.35;10.43;;;;;;;15.24;100.00;100240.38;5007236;28;20125;-62
2023/08/06 05:12:40;;;;;;;15.07;10.65;;;;;;;15.22;100.00;100237.88;5011959;28;20086;-62
2023/08/06 05:15:09;;;;;;;15.52;11.75;;;;;;;15.26;100.00;100231.31;5010718;28;20088;-54
2023/08/06 05:17:38;;;;;;;18.27;11.50;;;;;;;15.28;100.00;100236.44;5011779;28;20058;-53
2023/08/06 05:20:07;;;;;;;15.57;11.38;;;;;;;15.25;100.00;100239.41;5008883;28;20042;-53
2023/08/06 05:22:37;;;;;;;16.27;11.50;;;;;;;15.26;100.00;100239.25;5009311;28;20497;-63
2023/08/06 05:25:06;;;;;;;14.10;11.52;;;;;;;15.26;100.00;100247.19;5011731;28;20038;-63
2023/08/06 05:27:34;;;;;;;16.45;12.00;;;;;;;15.32;100.00;100251.91;5010231;28;20058;-63
2023/08/06 05:30:03;;;;;;;15.48;12.75;;;;;;;15.28;100.00;100247.03;5008906;28;20156;-63
2023/08/06 05:32:31;;;;;;;16.67;13.27;;;;;;;15.31;100.00;100258.19;5010574;28;20128;-63
2023/08/06 05:35:00;;;;;;;16.50;12.80;;;;;;;15.33;100.00;100253.56;5011350;28;20088;-54
2023/08/06 05:37:28;;;;;;;16.38;14.52;;;;;;;15.31;100.00;100260.84;5007950;28;20066;-55
2023/08/06 05:39:58;;;;;;;18.05;15.23;;;;;;;15.23;100.00;100262.53;5006216;28;20053;-54
2023/08/06 05:42:26;;;;;;;18.20;15.07;;;;;;;15.36;100.00;100271.81;5010519;28;20038;-54
2023/08/06 05:44:57;;;;;;;21.85;16.20;;;;;;;15.34;100.00;100267.69;5011394;28;20044;-54
2023/08/06 05:47:26;;;;;;;20.38;16.48;;;;;;;15.32;100.00;100267.78;5011236;28;20433;-54
2023/08/06 05:49:54;;;;;;;20.05;15.75;;;;;;;15.41;100.00;100273.22;5012101;28;20104;-62
2023/08/06 05:52:23;;;;;;;18.17;16.25;;;;;;;15.44;100.00;100272.94;5012362;28;20092;-62
2023/08/06 05:54:51;;;;;;;20.73;16.63;;;;;;;15.43;100.00;100276.56;5012629;28;20532;-54
2023/08/06 05:57:21;;;;;;;19.85;15.65;;;;;;;15.42;100.00;100278.38;5015250;28;20077;-54
2023/08/06 05:59:49;;;;;;;18.85;15.20;;;;;;;15.41;100.00;100275.88;5015157;28;20081;-55
2023/08/06 06:02:18;;;;;;;19.02;15.30;;;;;;;15.37;100.00;100278.78;5015470;28;20618;-63
2023/08/06 06:04:47;;;;;;;17.92;14.43;;;;;;;15.48;100.00;100274.31;5013798;28;20053;-63
2023/08/06 06:07:15;;;;;;;17.50;15.40;;;;;;;15.38;100.00;100282.31;5012464;28;20132;-63
2023/08/06 06:09:44;;;;;;;16.25;13.50;;;;;;;15.34;100.00;100289.69;5013451;28;20054;-63
2023/08/06 06:12:12;;;;;;;16.17;13.07;;;;;;;15.37;100.00;100296.53;5014794;28;20038;-63
2023/08/06 06:14:42;;;;;;;15.57;12.30;;;;;;;15.43;100.00;100284.50;5014013;28;20779;-63
2023/08/06 06:17:10;;;;;;;15.95;12.63;;;;;;;15.28;100.00;100300.03;5011697;28;20054;-63
2023/08/06 06:19:38;;;;;;;15.88;12.63;;;;;;;15.31;100.00;100299.72;5012424;28;20104;-63
2023/08/06 06:22:07;;;;;;;14.40;11.57;;;;;;;15.35;100.00;100304.63;5013553;28;20058;-62
2023/08/06 06:24:35;;;;;;;13.68;11.23;;;;;;;15.38;100.00;100306.97;5014654;28;20133;-62
2023/08/06 06:27:04;;;;;;;13.80;11.18;;;;;;;15.42;100.00;100307.53;5014717;28;20045;-61
2023/08/06 06:29:32;;;;;;;13.23;10.82;;;;;;;15.54;100.00;100316.97;5014812;28;20405;-61
2023/08/06 06:32:02;;;;;;;12.68;10.23;;;;;;;15.55;100.00;100320.44;5014570;28;20049;-61
2023/08/06 06:34:30;;;;;;;13.82;10.30;;;;;;;15.49;100.00;100313.91;5014399;28;20083;-61
2023/08/06 06:36:59;;;;;;;12.00;9.57;;;;;;;15.60;100.00;100322.63;5011366;28;20137;-62
2023/08/06 06:39:27;;;;;;;11.50;9.50;;;;;;;15.67;100.00;100321.09;5009165;28;20081;-61
2023/08/06 06:41:55;;;;;;;11.93;9.07;;;;;;;15.57;100.00;100325.59;5011568;28;20057;-55
2023/08/06 06:44:24;;;;;;;9.57;7.95;;;;;;;15.64;100.00;100321.41;5010929;28;20054;-56
2023/08/06 06:46:52;;;;;;;11.18;7.80;;;;;;;15.68;100.00;100333.38;5010206;28;20053;-58
2023/08/06 06:49:22;;;;;;;11.32;7.88;;;;;;;15.64;100.00;100327.53;5013074;28;20046;-61
2023/08/06 06:51:50;;;;;;;10.82;7.38;;;;;;;15.74;100.00;100329.31;5014017;28;20037;-61
2023/08/06 06:54:19;;;;;;;9.85;7.43;;;;;;;15.76;100.00;100324.69;5014172;28;20045;-61
2023/08/06 06:56:47;;;;;;;9.35;7.13;;;;;;;15.79;100.00;100325.22;5014353;28;20429;-61
2023/08/06 06:59:15;;;;;;;8.90;5.78;;;;;;;15.90;100.00;100326.88;5012869;28;20531;-61
2023/08/06 07:01:44;;;;;;;9.43;7.03;;;;;;;15.92;100.00;100332.03;5009952;28;20049;-61
2023/08/06 07:04:12;;;;;;;8.60;6.57;;;;;;;16.01;100.00;100334.63;5013104;28;20040;-61
2023/08/06 07:06:41;;;;;;;8.23;6.05;;;;;;;15.98;100.00;100332.28;5013881;28;20061;-62
2023/08/06 07:09:10;;;;;;;7.40;5.95;;;;;;;15.99;100.00;100335.75;5013006;28;20057;-62
2023/08/06 07:11:38;;;;;;;7.90;5.47;;;;;;;16.07;100.00;100340.34;5010844;28;20057;-62
2023/08/06 07:14:06;;;;;;;6.63;4.68;;;;;;;16.12;100.00;100333.59;5012296;28;20060;-62
2023/08/06 07:16:35;;;;;;;7.55;4.78;;;;;;;16.21;100.00;100347.78;5010607;28;20041;-62
2023/08/06 07:19:04;;;;;;;6.43;4.20;;;;;;;16.20;100.00;100341.66;5010695;28;20565;-61
2023/08/06 07:21:33;;;;;;;7.60;4.63;;;;;;;16.23;100.00;100343.19;5010395;28;20054;-56
2023/08/06 07:24:03;;;;;;;8.65;5.95;;;;;;;16.32;100.00;100347.59;5009071;28;20125;-56
2023/08/06 07:26:31;;;;;;;7.28;5.20;;;;;;;16.29;100.00;100350.56;5010312;28;20045;-56
2023/08/06 07:29:00;;;;;;;7.72;5.93;;;;;;;16.38;100.00;100348.81;5012681;28;20049;-62
2023/08/06 07:31:28;;;;;;;7.45;5.78;;;;;;;16.46;100.00;100353.38;5013252;28;20084;-62
2023/08/06 07:33:56;;;;;;;8.40;6.50;;;;;;;16.48;100.00;100357.53;5010035;28;20124;-62
2023/08/06 07:36:25;;;;;;;9.68;7.20;;;;;;;16.49;100.00;100353.06;5009818;28;20112;-63
2023/08/06 07:38:55;;;;;;;10.18;7.22;;;;;;;16.53;100.00;100357.09;5008073;28;20466;-62
2023/08/06 07:41:28;;;;;;;10.02;7.95;;;;;;;16.63;100.00;100368.44;5010897;28;20054;-62
2023/08/06 07:43:56;;;;;;;10.90;7.07;;;;;;;16.65;100.00;100369.16;5010346;28;20053;-62
2023/08/06 07:46:24;;;;;;;10.48;7.88;;;;;;;16.63;100.00;100365.81;5008656;28;20065;-62
2023/08/06 07:48:53;;;;;;;10.88;7.60;;;;;;;16.59;100.00;100369.75;5009735;28;20124;-55
2023/08/06 07:51:21;;;;;;;9.90;7.70;;;;;;;16.66;100.00;100365.53;5011644;28;20528;-56
2023/08/06 07:53:49;;;;;;;9.45;7.45;;;;;;;16.70;100.00;100369.53;5008973;28;20500;-55
2023/08/06 07:56:18;;;;;;;8.85;6.80;;;;;;;16.70;100.00;100363.38;5010312;28;20449;-55
2023/08/06 07:58:47;;;;;;;9.48;7.60;;;;;;;16.72;100.00;100366.72;5010065;28;20782;-63
2023/08/06 08:01:16;;;;;;;9.93;7.45;;;;;;;16.72;100.00;100364.06;5010294;28;20516;-63
2023/08/06 08:03:45;;;;;;;10.07;8.20;;;;;;;16.82;100.00;100359.50;5012770;28;20603;-63
2023/08/06 08:06:14;;;;;;;10.25;8.18;;;;;;;16.79;100.00;100364.31;5010799;28;20050;-64
2023/08/06 08:08:42;;;;;;;10.77;8.93;;;;;;;16.83;100.00;100357.69;5007414;28;20049;-56
2023/08/06 08:11:10;;;;;;;10.40;8.55;;;;;;;16.91;100.00;100365.78;5012150;28;20069;-55
2023/08/06 08:13:39;;;;;;;12.63;10.02;;;;;;;16.81;100.00;100357.84;5008459;28;20046;-56
2023/08/06 08:16:08;;;;;;;10.18;8.60;;;;;;;16.72;100.00;100366.72;5009406;28;20048;-55
2023/08/06 08:18:37;;;;;;;12.55;9.50;;;;;;;16.91;100.00;100360.47;5009698;28;20593;-61
2023/08/06 08:21:05;;;;;;;13.27;9.95;;;;;;;16.86;100.00;100362.69;5011187;28;20061;-54
2023/08/06 08:23:34;;;;;;;11.25;9.70;;;;;;;16.84;100.00;100378.78;5012366;28;20069;-55
2023/08/06 08:26:03;;;;;;;12.90;10.35;;;;;;;16.84;100.00;100362.84;5011644;28;20445;-55
2023/08/06 08:28:32;;;;;;;11.68;9.82;;;;;;;16.93;100.00;100370.94;5009262;28;20053;-55
2023/08/06 08:31:00;;;;;;;11.88;9.98;;;;;;;17.04;100.00;100366.22;5009292;28;20053;-55
2023/08/06 08:33:30;;;;;;;12.50;10.35;;;;;;;16.96;100.00;100370.63;5008709;28;20042;-55
2023/08/06 08:35:58;;;;;;;11.80;9.30;;;;;;;17.05;100.00;100373.19;5007460;28;20080;-55
2023/08/06 08:38:26;;;;;;;11.43;8.65;;;;;;;17.12;100.00;100367.25;5007338;28;20500;-56
2023/08/06 08:40:55;;;;;;;12.23;9.73;;;;;;;17.16;100.00;100369.44;5007466;28;20528;-62
2023/08/06 08:43:24;;;;;;;11.40;9.77;;;;;;;17.04;100.00;100376.84;5010313;28;20046;-62
2023/08/06 08:45:54;;;;;;;14.43;9.75;;;;;;;16.90;100.00;100372.88;5009304;28;20569;-62
2023/08/06 08:48:24;;;;;;;12.05;10.63;;;;;;;17.03;100.00;100367.19;5008736;28;20049;-62
2023/08/06 08:50:54;;;;;;;13.32;10.48;;;;;;;16.94;100.00;100370.78;5008928;28;20463;-63
2023/08/06 08:53:23;;;;;;;12.07;10.23;;;;;;;17.13;100.00;100374.25;5007237;28;20552;-62
2023/08/06 08:55:51;;;;;;;13.18;10.23;;;;;;;17.29;100.00;100379.69;5008220;28;20050;-63
2023/08/06 08:58:20;;;;;;;11.90;9.52;;;;;;;17.40;100.00;100375.94;5009025;28;20080;-63
2023/08/06 09:00:49;;;;;;;12.23;9.27;;;;;;;17.49;100.00;100376.81;5008450;28;20041;-55
2023/08/06 09:03:18;;;;;;;13.30;9.95;;;;;;;17.38;100.00;100376.09;5011557;28;20048;-55
2023/08/06 09:05:50;;;;;;;12.10;9.27;;;;;;;17.45;100.00;100386.09;5007250;28;20053;-54
2023/08/06 09:08:28;;;;;;;13.10;10.00;;;;;;;17.54;100.00;100379.84;5007920;28;20114;-55
2023/08/06 09:10:57;;;;;;;13.60;10.05;;;;;;;17.66;100.00;100380.44;5008508;28;20048;-54
2023/08/06 09:13:26;;;;;;;15.38;9.70;;;;;;;17.78;100.00;100373.00;5008604;28;20125;-54
2023/08/06 09:15:54;;;;;;;14.52;10.73;;;;;;;17.84;100.00;100380.34;5008211;28;20501;-54
2023/08/06 09:18:27;;;;;;;12.60;10.30;;;;;;;17.83;100.00;100378.69;5007816;28;20089;-55
2023/08/06 09:20:56;;;;;;;12.52;9.43;;;;;;;17.90;100.00;100385.88;5009638;28;20056;-55
2023/08/06 09:23:30;;;;;;;12.60;9.90;;;;;;;17.97;100.00;100386.09;5008740;28;20050;-55
2023/08/06 09:25:59;;;;;;;13.52;10.02;;;;;;;17.93;100.00;100391.88;5011890;28;20056;-55
2023/08/06 09:28:38;;;;;;;12.70;10.27;;;;;;;17.96;100.00;100395.06;5012096;28;20135;-55
2023/08/06 09:31:06;;;;;;;12.73;10.00;;;;;;;17.89;100.00;100400.16;5012623;28;20046;-54
2023/08/06 09:33:37;;;;;;;11.10;9.20;;;;;;;17.78;100.00;100395.13;5011855;28;20497;-54
2023/08/06 09:36:09;;;;;;;12.48;10.07;;;;;;;17.96;100.00;100400.38;5012633;28;20555;-54
2023/08/06 09:38:42;;;;;;;9.52;8.27;;;;;;;17.99;100.00;100402.72;5014133;28;20062;-63
2023/08/06 09:41:10;;;;;;;12.32;9.18;;;;;;;17.99;100.00;100405.38;5012936;28;20057;-63
2023/08/06 09:43:43;;;;;;;12.85;9.20;;;;;;;18.05;100.00;100409.22;5010189;28;20128;-55
2023/08/06 09:46:16;;;;;;;9.93;8.50;;;;;;;17.97;100.00;100407.38;5012064;28;20065;-63
2023/08/06 09:48:48;;;;;;;10.90;8.60;;;;;;;18.13;100.00;100408.44;5012284;28;20077;-62
2023/08/06 09:51:18;;;;;;;11.00;8.73;;;;;;;18.11;100.00;100405.13;5012892;28;20107;-62
2023/08/06 09:53:50;;;;;;;11.00;8.80;;;;;;;17.96;100.00;100408.38;5010130;28;20920;-62
2023/08/06 09:56:19;;;;;;;11.57;8.77;;;;;;;18.00;100.00;100412.38;5013603;28;20129;-62
2023/08/06 09:58:49;;;;;;;9.15;7.18;;;;;;;17.64;100.00;100414.28;5015087;28;20620;-62
2023/08/06 10:01:20;;;;;;;;;;;;;;;17.55;100.00;100410.75;5015582;28;20060;-62
2023/08/06 10:03:51;;;;;;;10.13;6.90;;;;;;;17.58;100.00;100413.09;5013384;28;20389;-63
2023/08/06 10:06:22;;;;;;;9.48;7.28;;;;;;;17.52;100.00;100419.03;5014782;28;20149;-63
2023/08/06 10:08:52;;;;;;;9.77;7.50;;;;;;;17.40;100.00;100411.31;5015123;28;20445;-63
2023/08/06 10:11:24;;;;;;;8.90;6.50;;;;;;;17.35;100.00;100415.44;5013784;28;20044;-62
2023/08/06 10:13:59;;;;;;;8.88;6.53;;;;;;;17.16;100.00;100421.75;5012156;28;20081;-56
2023/08/06 10:16:28;;;;;;;9.38;6.25;;;;;;;17.06;100.00;100429.81;5010690;28;20062;-56
2023/08/06 10:18:58;;;;;;;8.23;5.85;;;;;;;17.14;100.00;100427.22;5013760;28;20049;-55
2023/08/06 10:21:27;;;;;;;7.60;5.60;;;;;;;16.88;100.00;100429.78;5011437;28;20553;-56
2023/08/06 10:23:58;;;;;;;8.93;5.97;;;;;;;16.59;100.00;100433.44;5013736;28;20505;-56
2023/08/06 10:26:27;;;;;;;7.75;5.90;;;;;;;16.41;100.00;100433.41;5014589;28;20129;-57
2023/08/06 10:28:56;;;;;;;8.70;6.32;;;;;;;16.17;100.00;100426.00;5015003;28;20042;-57
2023/08/06 10:31:56;;;;;;;10.30;6.55;;;;;;;16.07;100.00;100427.88;5015169;28;20121;-57
2023/08/06 10:34:24;;;;;;;11.55;7.38;;;;;;;16.14;100.00;100423.63;5029918;28;20453;-57
2023/08/06 10:36:55;;;;;;;11.30;8.35;;;;;;;16.12;100.00;100425.63;5011045;28;20084;-57
2023/08/06 10:39:25;;;;;;;13.32;10.82;;;;;;;16.03;100.00;100436.13;5009664;28;20132;-57
2023/08/06 10:41:58;;;;;;;14.98;12.82;;;;;;;16.00;100.00;100431.09;5013223;28;20058;-57
2023/08/06 10:44:28;;;;;;;10.07;6.32;;;;;;;15.77;100.00;100450.97;5014601;28;20041;-56
2023/08/06 10:47:28;;;;;;;4.32;2.05;;;;;;;15.40;100.00;100457.84;5014351;28;20052;-57
2023/08/06 10:49:56;;;;;;;4.82;2.00;;;;;;;15.34;100.00;100469.84;5013896;28;20489;-56
2023/08/06 10:52:25;;;;;;;2.45;1.50;;;;;;;15.35;100.00;100460.06;5011874;28;20527;-57
2023/08/06 10:54:56;;;;;;;2.90;1.50;;;;;;;15.34;100.00;100467.19;5008005;28;20496;-63
2023/08/06 10:57:25;;;;;;;3.13;1.40;;;;;;;15.28;100.00;100459.78;5013067;28;20037;-57
2023/08/06 10:59:53;;;;;;;3.67;1.38;;;;;;;15.28;100.00;100464.25;5011788;28;20042;-56
2023/08/06 11:02:43;;;;;;;2.53;1.20;;;;;;;15.14;100.00;100473.47;5011788;28;20037;-59
2023/08/06 11:05:13;;;;;;;2.50;1.05;;;;;;;15.16;100.00;100468.84;5014113;28;20073;-63
2023/08/06 11:07:42;;;;;;;4.25;1.08;;;;;;;14.99;100.00;100460.63;5013828;28;20052;-62
2023/08/06 11:10:13;;;;;;;1.30;1.02;;;;;;;14.88;100.00;100466.06;5014065;28;20517;-63
2023/08/06 11:12:41;;;;;;;3.63;1.10;;;;;;;14.86;100.00;100467.97;5014138;28;20288;-63
2023/08/06 11:15:11;;;;;;;3.72;1.75;;;;;;;14.73;100.00;100468.25;5013856;28;20128;-62
2023/08/06 11:17:41;;;;;;;4.78;1.60;;;;;;;14.82;100.00;100469.22;5013709;28;20061;-62